Flight Track Log - Related Links

Times and Time Zones

All times are in EDT time to prevent confusion due to time zone crossing. See the AAL1870 flight status page for this flight to view local times or setup timezone preferences in your user account.


Time Position Orientation Groundspeed Altitude Reporting Facility
EDT Latitude Longitude Course Direction KTS MPH feet Rate Location/Type
Sun 08:43:27 PM 33.9340 -118.4430 263° West 174 200 1,800  Level FlightAware ADS-B
Sun 08:43:52 PM 33.9270 -118.4770 256° West 211 243 2,300 1,200 Climbing FlightAware ADS-B
Sun 08:44:07 PM 33.9210 -118.4940 247° West 233 268 2,600 1,867 Climbing FlightAware ADS-B
Sun 08:44:37 PM 33.9070 -118.5360 248° West 258 297 3,700 2,267 Climbing FlightAware ADS-B
Sun 08:44:52 PM 33.8960 -118.5550 235° Southwest 260 299 4,300 2,160 Climbing FlightAware ADS-B
Sun 08:45:02 PM 33.8850 -118.5630 211° Southwest 262 302 4,600 2,160 Climbing FlightAware ADS-B
Sun 08:45:17 PM 33.8680 -118.5670 191° South 271 312 5,200 2,400 Climbing FlightAware ADS-B
Sun 08:45:47 PM 33.8290 -118.5620 174° South 279 321 6,400 2,400 Climbing FlightAware ADS-B
Sun 08:46:02 PM 33.8110 -118.5540 160° South 279 321 7,000 2,160 Climbing FlightAware ADS-B
Sun 08:46:12 PM 33.8020 -118.5430 135° Southeast 282 325 7,300 1,680 Climbing FlightAware ADS-B
Sun 08:46:27 PM 33.7940 -118.5270 121° Southeast 285 328 7,700 2,160 Climbing FlightAware ADS-B
Sun 08:46:37 PM 33.7920 -118.5100 98° East 286 329 8,200 2,800 Climbing FlightAware ADS-B
Sun 08:46:57 PM 33.8010 -118.4770 72° East 283 326 9,100 2,571 Climbing FlightAware ADS-B
Sun 08:47:12 PM 33.8160 -118.4600 43° Northeast 284 327 9,700 1,964 Climbing FlightAware ADS-B
Sun 08:47:52 PM 33.8600 -118.4230 35° Northeast 309 356 10,900 1,800 Climbing FlightAware ADS-B
Sun 08:48:32 PM 33.9100 -118.3810 35° Northeast 335 386 12,100 1,765 Climbing FlightAware ADS-B
Sun 08:49:17 PM 33.9690 -118.3320 35° Northeast 363 418 13,400 2,047 Climbing FlightAware ADS-B
Sun 08:49:57 PM 34.0190 -118.2790 41° Northeast 375 432 15,000 2,471 Climbing FlightAware ADS-B
Sun 08:50:42 PM 34.0660 -118.1970 55° Northeast 382 440 16,900 2,471 Climbing FlightAware ADS-B
Sun 08:51:22 PM 34.1060 -118.1260 56° Northeast 389 448 18,500 2,325 Climbing FlightAware ADS-B
Sun 08:52:02 PM 34.1460 -118.0550 56° Northeast 396 456 20,000 2,188 Climbing FlightAware ADS-B
Sun 08:52:47 PM 34.1940 -117.9720 55° Northeast 403 464 21,600 2,047 Climbing FlightAware ADS-B
Sun 08:53:27 PM 34.2350 -117.8980 56° Northeast 411 473 22,900 1,835 Climbing FlightAware ADS-B
Sun 08:54:12 PM 34.2830 -117.8120 56° Northeast 419 482 24,200 1,694 Climbing FlightAware ADS-B
Sun 08:54:52 PM 34.3290 -117.7310 55° Northeast 427 491 25,300 1,575 Climbing FlightAware ADS-B
Sun 08:55:32 PM 34.3770 -117.6530 53° Northeast 434 499 26,300 1,412 Climbing FlightAware ADS-B
Sun 08:56:17 PM 34.4350 -117.5720 49° Northeast 443 510 27,300 1,341 Climbing FlightAware ADS-B
Sun 08:56:57 PM 34.4880 -117.4960 50° Northeast 447 514 28,200 1,341 Climbing FlightAware ADS-B
Sun 08:57:42 PM 34.5490 -117.4090 50° Northeast 452 520 29,200 1,271 Climbing FlightAware ADS-B
Sun 08:58:22 PM 34.6060 -117.3290 49° Northeast 458 527 30,000 1,350 Climbing FlightAware ADS-B
Sun 08:59:02 PM 34.6600 -117.2520 50° Northeast 455 524 31,000 1,482 Climbing FlightAware ADS-B
Sun 08:59:47 PM 34.7200 -117.1660 50° Northeast 450 518 32,100 1,412 Climbing FlightAware ADS-B
Sun 09:00:27 PM 34.7730 -117.0900 50° Northeast 447 514 33,000 1,271 Climbing FlightAware ADS-B
Sun 09:01:12 PM 34.8340 -117.0020 50° Northeast 448 516 33,900 1,129 Climbing FlightAware ADS-B
Sun 09:01:52 PM 34.8880 -116.9240 50° Northeast 449 517 34,600 600 Climbing FlightAware ADS-B
Sun 09:02:32 PM 34.9360 -116.8560 49° Northeast 449 517 34,700 847 Climbing FlightAware ADS-B
Sun 09:03:17 PM 34.9980 -116.7650 50° Northeast 450 518 35,800 960 Climbing FlightAware ADS-B
Sun 09:04:12 PM 35.0710 -116.6610 49° Northeast 449 517 36,300 316 Climbing FlightAware ADS-B
Sun 09:04:52 PM 35.1170 -116.5960 49° Northeast 449 517 36,300 494 Level FlightAware ADS-B
Sun 09:05:37 PM 35.1870 -116.4900 51° Northeast 449 517 37,000 494 Climbing FlightAware ADS-B
Sun 09:06:17 PM 35.2370 -116.4170 50° Northeast 450 518 37,000  Level FlightAware ADS-B
Sun 09:07:12 PM 35.3090 -116.3120 50° Northeast 451 519 37,000  Level FlightAware ADS-B
Sun 09:07:52 PM 35.3680 -116.2260 50° Northeast 449 517 37,000  Level FlightAware ADS-B
Sun 09:08:37 PM 35.4250 -116.1400 51° Northeast 448 516 37,000  Level FlightAware ADS-B
Sun 09:09:17 PM 35.4800 -116.0600 50° Northeast 448 516 37,000  Level FlightAware ADS-B
Sun 09:10:02 PM 35.5400 -115.9700 51° Northeast 446 513 37,000  Level FlightAware ADS-B
Sun 09:10:42 PM 35.5910 -115.8940 50° Northeast 446 513 37,000  Level FlightAware ADS-B
Sun 09:11:27 PM 35.6480 -115.8090 50° Northeast 446 513 37,000  Level FlightAware ADS-B
Sun 09:12:07 PM 35.7030 -115.7270 50° Northeast 446 513 37,000  Level FlightAware ADS-B
Sun 09:12:47 PM 35.7480 -115.6450 56° Northeast 447 514 37,000  Level FlightAware ADS-B
Sun 09:13:32 PM 35.7860 -115.5400 66° East 449 517 37,000  Level FlightAware ADS-B
Sun 09:14:12 PM 35.8200 -115.4430 67° East 449 517 37,000  Level FlightAware ADS-B
Sun 09:14:57 PM 35.8580 -115.3390 66° East 451 519 37,000  Level FlightAware ADS-B
Sun 09:15:37 PM 35.8910 -115.2460 66° East 453 521 37,000  Level FlightAware ADS-B
Sun 09:16:17 PM 35.9250 -115.1500 66° East 453 521 37,000  Level FlightAware ADS-B
Sun 09:17:02 PM 35.9640 -115.0430 66° East 454 522 37,000  Level FlightAware ADS-B
Sun 09:17:42 PM 35.9970 -114.9480 67° East 454 522 37,000  Level FlightAware ADS-B
Sun 09:18:22 PM 36.0310 -114.8540 66° East 453 521 37,000  Level FlightAware ADS-B
Sun 09:19:07 PM 36.0670 -114.7500 67° East 452 520 37,000  Level FlightAware ADS-B
Sun 09:19:47 PM 36.1000 -114.6560 66° East 450 518 37,000  Level FlightAware ADS-B
Sun 09:20:32 PM 36.1390 -114.5460 66° East 448 516 37,000  Level FlightAware ADS-B
Sun 09:21:12 PM 36.1700 -114.4560 67° East 447 514 37,000  Level FlightAware ADS-B
Sun 09:21:57 PM 36.2060 -114.3530 67° East 448 516 37,000  Level FlightAware ADS-B
Sun 09:22:37 PM 36.2400 -114.2550 67° East 448 516 37,000  Level FlightAware ADS-B
Sun 09:23:17 PM 36.2720 -114.1630 67° East 447 514 37,000  Level FlightAware ADS-B
Sun 09:24:02 PM 36.3110 -114.0520 66° East 444 511 37,000  Level FlightAware ADS-B
Sun 09:24:42 PM 36.3420 -113.9600 67° East 445 512 37,000  Level FlightAware ADS-B
Sun 09:25:27 PM 36.3780 -113.8560 67° East 444 511 37,000  Level FlightAware ADS-B
Sun 09:26:02 PM 36.4070 -113.7710 67° East 444 511 37,000  Level FlightAware ADS-B
Sun 09:26:42 PM 36.4380 -113.6800 67° East 444 511 37,000  Level FlightAware ADS-B
Sun 09:27:27 PM 36.4730 -113.5770 67° East 445 512 37,000  Level FlightAware ADS-B
Sun 09:28:07 PM 36.5050 -113.4810 67° East 449 517 37,000  Level FlightAware ADS-B
Sun 09:28:47 PM 36.5380 -113.3840 67° East 449 517 37,000  Level FlightAware ADS-B
Sun 09:29:32 PM 36.5740 -113.2770 67° East 450 518 37,000  Level FlightAware ADS-B
Sun 09:30:12 PM 36.6060 -113.1800 68° East 450 518 37,000  Level FlightAware ADS-B
Sun 09:30:52 PM 36.6370 -113.0860 68° East 451 519 37,000  Level FlightAware ADS-B
Sun 09:31:37 PM 36.6730 -112.9790 67° East 453 521 37,000  Level FlightAware ADS-B
Sun 09:32:22 PM 36.7100 -112.8670 68° East 453 521 37,000  Level FlightAware ADS-B
Sun 09:33:12 PM 36.7470 -112.7570 67° East 452 520 37,000  Level FlightAware ADS-B
Sun 09:34:02 PM 36.7820 -112.6550 67° East 452 520 37,000  Level FlightAware ADS-B
Sun 09:34:42 PM 36.8100 -112.5730 67° East 452 520 37,000  Level FlightAware ADS-B
Sun 09:35:22 PM 36.8370 -112.4910 68° East 452 520 37,000  Level FlightAware ADS-B
Sun 09:35:52 PM 36.8580 -112.4300 67° East 452 520 37,000  Level FlightAware ADS-B
Sun 09:36:32 PM 36.8860 -112.3480 67° East 452 520 37,000  Level FlightAware ADS-B
Sun 09:37:12 PM 36.9140 -112.2660 67° East 452 520 37,000  Level FlightAware ADS-B
Sun 09:37:52 PM 36.9420 -112.1850 67° East 452 520 37,000  Level FlightAware ADS-B
Sun 09:38:32 PM 36.9690 -112.1030 68° East 452 520 37,000  Level FlightAware ADS-B
Sun 09:39:22 PM 37.0040 -112.0000 67° East 452 520 37,000  Level FlightAware ADS-B
Sun 09:39:52 PM 37.0250 -111.9390 67° East 452 520 37,000  Level FlightAware ADS-B
Sun 09:40:32 PM 37.0530 -111.8570 67° East 452 520 37,000  Level FlightAware ADS-B
Sun 09:41:22 PM 37.0870 -111.7540 67° East 452 520 37,000  Level FlightAware ADS-B
Sun 09:42:02 PM 37.1150 -111.6720 67° East 452 520 37,000  Level FlightAware ADS-B
Sun 09:42:42 PM 37.1430 -111.5900 67° East 452 520 37,000  Level FlightAware ADS-B
Sun 09:43:25 PM 37.2083 -111.2631 67° East 457 526 37,000  Level Los Angeles Center
Sun 09:44:39 PM 37.2522 -111.0806 73° East 460 529 37,000  Level Denver Center
Sun 09:45:41 PM 37.2883 -110.9289 73° East 457 526 37,000  Level Denver Center
Sun 09:46:43 PM 37.3333 -110.7447 73° East 461 531 37,000  Level Denver Center
Sun 09:47:45 PM 37.3692 -110.5911 74° East 461 531 37,000  Level Denver Center
Sun 09:48:46 PM 37.4081 -110.4364 72° East 464 534 37,000  Level Denver Center
Sun 09:49:48 PM 37.4450 -110.2819 73° East 464 534 37,000  Level Denver Center
Sun 09:50:50 PM 37.4836 -110.1111 74° East 461 531 37,000  Level Denver Center
Sun 09:51:52 PM 37.5192 -109.9619 73° East 464 534 37,000  Level Denver Center
Sun 09:52:54 PM 37.5589 -109.7872 74° East 464 534 37,000  Level Denver Center
Sun 09:53:56 PM 37.5939 -109.6372 74° East 465 535 37,000  Level Denver Center
Sun 09:54:58 PM 37.6272 -109.4889 74° East 462 532 37,000  Level Denver Center
Sun 09:55:59 PM 37.6669 -109.3142 74° East 462 532 37,000  Level Denver Center
Sun 09:57:01 PM 37.7003 -109.1633 74° East 466 536 37,000  Level Denver Center
Sun 09:58:03 PM 37.7400 -108.9903 74° East 460 529 37,000  Level Denver Center
Sun 09:59:05 PM 37.7736 -108.8400 74° East 462 532 37,000  Level Denver Center
Sun 10:04:37 PM 37.9670 -107.9480 74° East 473 544 37,000  Level FlightAware ADS-B
Sun 10:05:22 PM 37.9910 -107.8330 75° East 474 545 37,000  Level FlightAware ADS-B
Sun 10:06:02 PM 38.0150 -107.7210 75° East 472 543 37,000  Level FlightAware ADS-B
Sun 10:07:27 PM 38.0600 -107.5040 75° East 470 541 37,000  Level FlightAware ADS-B
Sun 10:08:07 PM 38.0830 -107.3980 75° East 469 540 37,000  Level FlightAware ADS-B
Sun 10:08:52 PM 38.1070 -107.2820 75° East 467 537 37,000  Level FlightAware ADS-B
Sun 10:09:37 PM 38.1340 -107.1490 75° East 467 537 37,000  Level FlightAware ADS-B
Sun 10:10:17 PM 38.1550 -107.0440 76° East 468 539 37,000  Level FlightAware ADS-B
Sun 10:10:51 PM 38.1749 -106.9470 75° East 468 539 37,000  Level FlightAware ADS-B
Sun 10:11:22 PM 38.1913 -106.8660 76° East 469 540 37,000  Level FlightAware ADS-B
Sun 10:11:53 PM 38.2083 -106.7830 75° East 468 539 37,000  Level FlightAware ADS-B
Sun 10:12:24 PM 38.2249 -106.7000 76° East 466 536 37,000  Level FlightAware ADS-B
Sun 10:12:56 PM 38.2417 -106.6160 76° East 469 540 37,000  Level FlightAware ADS-B
Sun 10:13:31 PM 38.2604 -106.5220 76° East 470 541 37,000  Level FlightAware ADS-B
Sun 10:14:01 PM 38.2763 -106.4410 76° East 471 542 37,000  Level FlightAware ADS-B
Sun 10:14:34 PM 38.2938 -106.3530 76° East 470 541 37,000  Level FlightAware ADS-B
Sun 10:15:05 PM 38.3102 -106.2710 76° East 473 544 37,000  Level FlightAware ADS-B
Sun 10:15:38 PM 38.3277 -106.1810 76° East 475 547 37,000  Level FlightAware ADS-B
Sun 10:16:08 PM 38.3437 -106.1000 76° East 475 547 37,000  Level FlightAware ADS-B
Sun 10:16:38 PM 38.3595 -106.0180 76° East 476 548 37,000  Level FlightAware ADS-B
Sun 10:17:10 PM 38.3763 -105.9310 76° East 476 548 37,000  Level FlightAware ADS-B
Sun 10:17:41 PM 38.3925 -105.8470 76° East 476 548 37,000  Level FlightAware ADS-B
Sun 10:18:12 PM 38.4085 -105.7630 76° East 475 547 37,000  Level FlightAware ADS-B
Sun 10:18:43 PM 38.4245 -105.6800 76° East 474 545 37,000  Level FlightAware ADS-B
Sun 10:19:14 PM 38.4408 -105.5950 76° East 474 545 37,000  Level FlightAware ADS-B
Sun 10:19:45 PM 38.4567 -105.5110 76° East 475 547 37,000  Level FlightAware ADS-B
Sun 10:20:15 PM 38.4721 -105.4290 76° East 476 548 37,000  Level FlightAware ADS-B
Sun 10:20:45 PM 38.4876 -105.3470 76° East 477 549 37,000  Level FlightAware ADS-B
Sun 10:21:16 PM 38.5034 -105.2630 76° East 477 549 37,000  Level FlightAware ADS-B
Sun 10:21:46 PM 38.5189 -105.1800 77° East 479 551 37,000  Level FlightAware ADS-B
Sun 10:22:17 PM 38.5345 -105.0960 77° East 479 551 37,000  Level FlightAware ADS-B
Sun 10:22:48 PM 38.5502 -105.0100 77° East 477 549 37,000  Level FlightAware ADS-B
Sun 10:23:18 PM 38.5653 -104.9290 77° East 474 545 37,000  Level FlightAware ADS-B
Sun 10:23:50 PM 38.5813 -104.8420 77° East 475 547 37,000  Level FlightAware ADS-B
Sun 10:24:20 PM 38.5962 -104.7600 77° East 477 549 37,000  Level FlightAware ADS-B
Sun 10:24:54 PM 38.6129 -104.6670 77° East 477 549 37,000  Level FlightAware ADS-B
Sun 10:25:25 PM 38.6282 -104.5830 77° East 477 549 37,000  Level FlightAware ADS-B
Sun 10:25:55 PM 38.6431 -104.5010 77° East 476 548 37,000  Level FlightAware ADS-B
Sun 10:26:25 PM 38.6578 -104.4180 77° East 476 548 37,000  Level FlightAware ADS-B
Sun 10:26:55 PM 38.6725 -104.3360 77° East 475 547 37,000  Level FlightAware ADS-B
Sun 10:27:25 PM 38.6874 -104.2530 77° East 474 545 37,000  Level FlightAware ADS-B
Sun 10:27:56 PM 38.7021 -104.1700 77° East 474 545 37,000  Level FlightAware ADS-B
Sun 10:28:26 PM 38.7165 -104.0880 77° East 475 547 37,000  Level FlightAware ADS-B
Sun 10:28:56 PM 38.7312 -104.0040 77° East 472 543 37,000  Level FlightAware ADS-B
Sun 10:29:27 PM 38.7458 -103.9210 77° East 471 542 37,000  Level FlightAware ADS-B
Sun 10:29:57 PM 38.7602 -103.8380 77° East 470 541 37,000  Level FlightAware ADS-B
Sun 10:30:28 PM 38.7742 -103.7570 77° East 470 541 37,000  Level FlightAware ADS-B
Sun 10:30:58 PM 38.7886 -103.6730 78° East 470 541 37,000  Level FlightAware ADS-B
Sun 10:31:29 PM 38.8028 -103.5900 78° East 471 542 37,000  Level FlightAware ADS-B
Sun 10:31:59 PM 38.8170 -103.5080 77° East 473 544 37,000  Level FlightAware ADS-B
Sun 10:32:29 PM 38.8310 -103.4250 78° East 475 547 37,000  Level FlightAware ADS-B
Sun 10:32:59 PM 38.8451 -103.3420 78° East 478 550 37,000  Level FlightAware ADS-B
Sun 10:33:30 PM 38.8592 -103.2590 78° East 478 550 37,000  Level FlightAware ADS-B
Sun 10:34:00 PM 38.8734 -103.1750 78° East 477 549 37,000  Level FlightAware ADS-B
Sun 10:34:30 PM 38.8873 -103.0910 78° East 475 547 37,000  Level FlightAware ADS-B
Sun 10:35:00 PM 38.9011 -103.0080 78° East 477 549 37,000  Level FlightAware ADS-B
Sun 10:35:32 PM 38.9152 -102.9220 78° East 476 548 37,000  Level FlightAware ADS-B
Sun 10:36:02 PM 38.9290 -102.8380 78° East 477 549 37,000  Level FlightAware ADS-B
Sun 10:36:32 PM 38.9427 -102.7550 78° East 477 549 37,000  Level FlightAware ADS-B
Sun 10:37:02 PM 38.9563 -102.6710 78° East 477 549 37,000  Level FlightAware ADS-B
Sun 10:37:33 PM 38.9699 -102.5870 78° East 477 549 37,000  Level FlightAware ADS-B
Sun 10:38:04 PM 38.9837 -102.5020 78° East 476 548 37,000  Level FlightAware ADS-B
Sun 10:38:34 PM 38.9971 -102.4180 78° East 476 548 37,000  Level FlightAware ADS-B
Sun 10:39:04 PM 39.0106 -102.3350 78° East 476 548 37,000  Level FlightAware ADS-B
Sun 10:39:41 PM 39.0267 -102.2320 79° East 477 549 37,000  Level FlightAware ADS-B
Sun 10:40:12 PM 39.0404 -102.1470 78° East 477 549 37,000  Level FlightAware ADS-B
Sun 10:40:43 PM 39.0538 -102.0610 79° East 476 548 37,000  Level FlightAware ADS-B
Sun 10:41:16 PM 39.0678 -101.9710 79° East 476 548 37,000  Level FlightAware ADS-B
Sun 10:41:46 PM 39.0808 -101.8880 79° East 477 549 37,000  Level FlightAware ADS-B
Sun 10:42:16 PM 39.0940 -101.8030 79° East 477 549 37,000  Level FlightAware ADS-B
Sun 10:42:46 PM 39.1069 -101.7190 79° East 478 550 37,000  Level FlightAware ADS-B
Sun 10:43:16 PM 39.1198 -101.6350 79° East 477 549 37,000  Level FlightAware ADS-B
Sun 10:43:47 PM 39.1328 -101.5500 79° East 477 549 37,000  Level FlightAware ADS-B
Sun 10:44:18 PM 39.1460 -101.4640 79° East 477 549 37,000  Level FlightAware ADS-B
Sun 10:44:56 PM 39.1620 -101.3590 79° East 476 548 37,000  Level FlightAware ADS-B
Sun 10:45:33 PM 39.1772 -101.2570 79° East 475 547 37,000  Level FlightAware ADS-B
Sun 10:45:52 PM 39.1825 -101.2194 79° East 475 547 37,000  Level Kansas City Center
Sun 10:46:21 PM 39.1939 -101.1428 79° East 475 547 37,000  Level Denver Center
Sun 10:47:23 PM 39.2206 -100.9586 79° East 471 542 37,000  Level Denver Center
Sun 10:48:24 PM 39.2450 -100.8014 79° East 469 540 37,000  Level Denver Center
Sun 10:49:25 PM 39.2669 -100.6400 80° East 475 547 37,000  Level Denver Center
Sun 10:50:27 PM 39.2936 -100.4567 79° East 470 541 37,000  Level Denver Center
Sun 10:51:28 PM 39.3158 -100.2981 80° East 469 540 37,000  Level Denver Center
Sun 10:52:30 PM 39.3422 -100.1133 79° East 471 542 37,000  Level Denver Center
Sun 10:53:31 PM 39.3639 -99.9525 80° East 475 547 37,000  Level Denver Center
Sun 10:54:33 PM 39.3861 -99.7933 80° East 473 544 37,000  Level Denver Center
Sun 10:55:34 PM 39.4117 -99.6056 80° East 475 547 37,000  Level Denver Center
Sun 10:56:35 PM 39.4331 -99.4439 80° East 478 550 37,000  Level Denver Center
Sun 10:57:37 PM 39.4575 -99.2606 80° East 467 537 37,000  Level Denver Center
Sun 10:58:38 PM 39.4783 -99.0969 81° East 467 537 37,000  Level Denver Center
Sun 10:59:39 PM 39.4992 -98.9347 81° East 460 529 37,000  Level Denver Center
Sun 11:00:41 PM 39.5211 -98.7714 80° East 461 531 37,000  Level Denver Center
Sun 11:01:42 PM 39.5408 -98.6086 81° East 461 531 37,000  Level Denver Center
Sun 11:02:43 PM 39.5614 -98.4447 81° East 461 531 37,000  Level Denver Center
Sun 11:03:45 PM 39.5825 -98.2772 81° East 469 540 37,000  Level Denver Center
Sun 11:05:14 PM 39.6153 -98.0122 81° East 471 542 37,000  Level Kansas City Center
Sun 11:06:15 PM 39.6350 -97.8406 81° East 468 539 37,000  Level Kansas City Center
Sun 11:06:38 PM 39.6417 -97.7764 82° East 470 541 37,000  Level Minneapolis Center
Sun 11:07:39 PM 39.6606 -97.6222 81° East 470 541 37,000  Level Minneapolis Center
Sun 11:13:17 PM 39.7570 -96.7740 81° East 464 534 37,000  Level FlightAware ADS-B
Sun 11:13:52 PM 39.7660 -96.6890 82° East 464 534 37,000  Level FlightAware ADS-B
Sun 11:14:32 PM 39.7790 -96.5630 82° East 464 534 37,000  Level FlightAware ADS-B
Sun 11:15:22 PM 39.7910 -96.4520 82° East 466 536 37,000  Level FlightAware ADS-B
Sun 11:16:02 PM 39.8010 -96.3620 82° East 467 537 37,000  Level FlightAware ADS-B
Sun 11:16:47 PM 39.8140 -96.2370 82° East 467 537 37,000  Level FlightAware ADS-B
Sun 11:17:27 PM 39.8230 -96.1460 83° East 468 539 37,000 300 Level FlightAware ADS-B
Sun 11:18:07 PM 39.8320 -96.0600 82° East 468 539 37,400 635 Climbing FlightAware ADS-B
Sun 11:18:52 PM 39.8420 -95.9650 82° East 468 539 37,900 918 Climbing FlightAware ADS-B
Sun 11:19:32 PM 39.8590 -95.7940 83° East 468 539 38,700 776 Climbing FlightAware ADS-B
Sun 11:20:17 PM 39.8690 -95.6880 83° East 468 539 39,000 212 Climbing FlightAware ADS-B
Sun 11:20:57 PM 39.8780 -95.6070 82° East 467 537 39,000  Level FlightAware ADS-B
Sun 11:21:37 PM 39.9100 -95.2780 83° East 461 531 39,000  Level FlightAware ADS-B
Sun 11:22:22 PM 39.9210 -95.1570 83° East 460 529 39,000  Level FlightAware ADS-B
Sun 11:23:02 PM 39.9310 -95.0490 83° East 459 528 39,000  Level FlightAware ADS-B
Sun 11:23:47 PM 39.9430 -94.9220 83° East 458 527 39,000  Level FlightAware ADS-B
Sun 11:24:27 PM 39.9530 -94.8130 83° East 458 527 39,000  Level FlightAware ADS-B
Sun 11:25:12 PM 39.9640 -94.6920 83° East 458 527 39,000  Level FlightAware ADS-B
Sun 11:25:52 PM 39.9850 -94.5870 75° East 454 522 39,000  Level FlightAware ADS-B
Sun 11:26:32 PM 40.0120 -94.4820 71° East 455 524 39,000  Level FlightAware ADS-B
Sun 11:27:17 PM 40.0430 -94.3630 71° East 455 524 39,000  Level FlightAware ADS-B
Sun 11:27:57 PM 40.0700 -94.2590 71° East 456 525 39,000  Level FlightAware ADS-B
Sun 11:28:37 PM 40.0970 -94.1550 71° East 456 525 39,000  Level FlightAware ADS-B
Sun 11:29:22 PM 40.1270 -94.0390 71° East 457 526 39,000  Level FlightAware ADS-B
Sun 11:30:02 PM 40.1530 -93.9350 72° East 458 527 39,000  Level FlightAware ADS-B
Sun 11:30:47 PM 40.1840 -93.8140 71° East 459 528 39,000  Level FlightAware ADS-B
Sun 11:31:27 PM 40.2100 -93.7100 72° East 460 529 39,000  Level FlightAware ADS-B
Sun 11:32:07 PM 40.2370 -93.6030 72° East 459 528 39,000  Level FlightAware ADS-B
Sun 11:32:52 PM 40.2650 -93.4880 72° East 459 528 39,000  Level FlightAware ADS-B
Sun 11:33:32 PM 40.2920 -93.3800 72° East 458 527 39,000  Level FlightAware ADS-B
Sun 11:34:17 PM 40.3220 -93.2620 72° East 459 528 39,000  Level FlightAware ADS-B
Sun 11:34:57 PM 40.3460 -93.1620 72° East 458 527 39,000  Level FlightAware ADS-B
Sun 11:35:42 PM 40.3750 -93.0450 72° East 458 527 39,000  Level FlightAware ADS-B
Sun 11:36:22 PM 40.4020 -92.9340 72° East 458 527 39,000  Level FlightAware ADS-B
Sun 11:37:02 PM 40.4280 -92.8290 72° East 458 527 39,000  Level FlightAware ADS-B
Sun 11:37:42 PM 40.4530 -92.7230 73° East 458 527 39,000  Level FlightAware ADS-B
Sun 11:38:27 PM 40.4790 -92.6160 72° East 458 527 39,000  Level FlightAware ADS-B
Sun 11:39:02 PM 40.5050 -92.5090 72° East 458 527 39,000  Level FlightAware ADS-B
Sun 11:39:52 PM 40.5360 -92.3770 73° East 457 526 39,000  Level FlightAware ADS-B
Sun 11:40:32 PM 40.5610 -92.2720 73° East 458 527 39,000  Level FlightAware ADS-B
Sun 11:41:12 PM 40.5860 -92.1670 73° East 458 527 39,000  Level FlightAware ADS-B
Sun 11:41:57 PM 40.6130 -92.0530 73° East 459 528 39,000  Level FlightAware ADS-B
Sun 11:42:37 PM 40.6400 -91.9370 73° East 460 529 39,000  Level FlightAware ADS-B
Sun 11:43:17 PM 40.6650 -91.8300 73° East 462 532 39,000  Level FlightAware ADS-B
Sun 11:44:02 PM 40.6920 -91.7100 73° East 464 534 39,000  Level FlightAware ADS-B
Sun 11:44:42 PM 40.7170 -91.6030 73° East 465 535 39,000  Level FlightAware ADS-B
Sun 11:45:27 PM 40.7460 -91.4790 73° East 466 536 39,000  Level FlightAware ADS-B
Sun 11:46:07 PM 40.7690 -91.3750 74° East 466 536 39,000  Level FlightAware ADS-B
Sun 11:46:52 PM 40.7970 -91.2520 73° East 466 536 39,000  Level FlightAware ADS-B
Sun 11:47:32 PM 40.8210 -91.1440 74° East 465 535 39,000  Level FlightAware ADS-B
Sun 11:48:12 PM 40.8470 -91.0330 73° East 463 533 39,000 -71 Level FlightAware ADS-B
Sun 11:48:57 PM 40.8730 -90.9140 74° East 461 531 38,900 -565 Descending FlightAware ADS-B
Sun 11:49:37 PM 40.8980 -90.8030 73° East 461 531 38,200 -988 Descending FlightAware ADS-B
Sun 11:50:22 PM 40.9240 -90.6830 74° East 460 529 37,500 -847 Descending FlightAware ADS-B
Sun 11:51:02 PM 40.9480 -90.5750 74° East 460 529 37,000 -353 Descending FlightAware ADS-B
Sun 11:51:47 PM 40.9740 -90.4570 74° East 459 528 37,000 -353 Level FlightAware ADS-B
Sun 11:52:27 PM 40.9980 -90.3480 74° East 464 534 36,500 -1,425 Descending FlightAware ADS-B
Sun 11:53:07 PM 41.0220 -90.2350 74° East 459 528 35,100 -1,765 Descending FlightAware ADS-B
Sun 11:53:52 PM 41.0490 -90.1110 74° East 460 529 34,000 -2,188 Descending FlightAware ADS-B
Sun 11:54:32 PM 41.0710 -90.0040 75° East 463 533 32,000 -2,824 Descending FlightAware ADS-B
Sun 11:55:17 PM 41.0980 -89.8820 74° East 459 528 30,000 -2,541 Descending FlightAware ADS-B
Sun 11:55:57 PM 41.1200 -89.7760 75° East 448 516 28,400 -2,325 Descending FlightAware ADS-B
Sun 11:56:37 PM 41.1420 -89.6720 74° East 436 502 26,900 -2,259 Descending FlightAware ADS-B
Sun 11:57:22 PM 41.1720 -89.5580 71° East 419 482 25,200 -2,188 Descending FlightAware ADS-B
Sun 11:58:02 PM 41.2080 -89.4680 62° Northeast 409 471 23,800 -2,118 Descending FlightAware ADS-B
Sun 11:58:47 PM 41.2470 -89.3720 62° Northeast 401 461 22,200 -2,118 Descending FlightAware ADS-B
Sun 11:59:27 PM 41.2810 -89.2870 62° Northeast 395 455 20,800 -2,100 Descending FlightAware ADS-B
Mon 12:00:07 AM 41.3160 -89.2010 62° Northeast 387 445 19,400 -2,118 Descending FlightAware ADS-B
Mon 12:00:52 AM 41.3540 -89.1060 62° Northeast 378 435 17,800 -2,118 Descending FlightAware ADS-B
Mon 12:01:32 AM 41.3870 -89.0240 62° Northeast 372 428 16,400 -2,047 Descending FlightAware ADS-B
Mon 12:02:17 AM 41.4220 -88.9370 62° Northeast 363 418 14,900 -1,976 Descending FlightAware ADS-B
Mon 12:02:57 AM 41.4530 -88.8590 62° Northeast 356 410 13,600 -1,950 Descending FlightAware ADS-B
Mon 12:03:37 AM 41.4830 -88.7810 63° Northeast 347 399 12,300 -1,765 Descending FlightAware ADS-B
Mon 12:04:22 AM 41.5170 -88.6970 62° Northeast 329 379 11,100 -847 Descending FlightAware ADS-B
Mon 12:05:02 AM 41.5450 -88.6250 63° Northeast 335 386 11,100  Level FlightAware ADS-B
Mon 12:05:47 AM 41.5770 -88.5450 62° Northeast 335 386 11,100  Level FlightAware ADS-B
Mon 12:06:27 AM 41.6070 -88.4720 61° Northeast 332 382 11,100 -150 Level FlightAware ADS-B
Mon 12:07:07 AM 41.6430 -88.4080 53° Northeast 326 375 10,900 -706 Descending FlightAware ADS-B
Mon 12:07:52 AM 41.6850 -88.3370 52° Northeast 303 349 10,100 -565 Descending FlightAware ADS-B
Mon 12:08:32 AM 41.7170 -88.2820 52° Northeast 293 337 10,100 -212 Level FlightAware ADS-B
Mon 12:09:17 AM 41.7560 -88.2200 50° Northeast 283 326 9,800 -771 Descending FlightAware ADS-B
Mon 12:09:42 AM 41.7810 -88.1870 45° Northeast 281 323 9,200 -1,418 Descending FlightAware ADS-B
Mon 12:10:12 AM 41.8080 -88.1510 45° Northeast 277 319 8,500 -1,527 Descending FlightAware ADS-B
Mon 12:10:37 AM 41.8350 -88.1350 24° Northeast 273 314 7,800 -1,527 Descending FlightAware ADS-B
Mon 12:11:07 AM 41.8730 -88.1350 360° North 273 314 7,100 -700 Descending FlightAware ADS-B
Mon 12:11:37 AM 41.9090 -88.1370 358° North 243 280 7,100  Level FlightAware ADS-B
Mon 12:12:02 AM 41.9350 -88.1380 358° North 232 267 7,100  Level FlightAware ADS-B
Mon 12:12:17 AM 41.9520 -88.1390 357° North 232 267 7,100 -400 Level FlightAware ADS-B
Mon 12:12:47 AM 41.9820 -88.1480 347° North 228 262 6,800 -982 Descending FlightAware ADS-B
Mon 12:13:12 AM 42.0030 -88.1660 328° Northwest 228 262 6,200 -1,500 Descending FlightAware ADS-B
Mon 12:13:27 AM 42.0180 -88.1790 327° Northwest 226 260 5,800 -1,500 Descending FlightAware ADS-B
Mon 12:13:52 AM 42.0390 -88.1910 337° Northwest 228 262 5,200 -1,418 Descending FlightAware ADS-B
Mon 12:14:22 AM 42.0650 -88.1730 27° Northeast 223 257 4,500 -1,200 Descending FlightAware ADS-B
Mon 12:14:47 AM 42.0840 -88.1440 49° Northeast 226 260 4,100 -750 Descending FlightAware ADS-B
Mon 12:15:02 AM 42.0870 -88.1220 80° East 228 262 4,000 -133 Descending FlightAware ADS-B
Mon 12:15:32 AM 42.0790 -88.0880 108° East 197 227 4,000 -700 Level FlightAware ADS-B
Mon 12:16:02 AM 42.0700 -88.0550 110° East 189 217 3,300 -1,418 Descending FlightAware ADS-B
Mon 12:16:27 AM 42.0620 -88.0280 112° Southeast 185 213 2,700 -982 Descending FlightAware ADS-B
Mon 12:16:57 AM 42.0500 -88.0000 120° Southeast 166 191 2,400 -900 Descending FlightAware ADS-B
Mon 12:17:27 AM 42.0310 -87.9790 141° Southeast 154 177 1,800 -982 Descending FlightAware ADS-B
Mon 12:17:52 AM 42.0180 -87.9640 139° Southeast 148 170 1,500 -764 Descending FlightAware ADS-B
Mon 12:18:22 AM 42.0030 -87.9470 140° Southeast 143 165 1,100 -800 Descending FlightAware ADS-B
Mon 12:18:37 AM 41.9950 -87.9380 140° Southeast 144 166 900 -800 Descending FlightAware ADS-B

Login

Don't have an account? Register now (free) for customized features, flight alerts, and more!